Berkeley, IL (60163)

4:25 PM CST on December 10, 2016 (GMT -0600)
South Elmhurst | | Change Station
Active Advisory: Winter Storm Warning

Elev 719 ft 41.87 °N, 87.92 °W | Updated 9 seconds ago

Snow
Snow
23.7 °F
Feels Like 24 °F
N
0.9
Wind Variable Wind from SW
Gusts 2.5 mph

Today
High -- | Low -- °F
--% Chance of Precip.
Yesterday
High -- | Low -- °F
Precip. -- in
Pressure 30.41 in
Visibility 2.0 miles
Clouds Overcast 4200 ft
Windchill 24 °F
Dew Point 17 °F
Humidity 75%
Rainfall 0.00 in
Snow Depth Not available.
7:08 AM 4:20 PM
Waxing Gibbous, 86% visible
SPECI KORD 102204Z 22006KT 2SM -SN OVC042 M05/M09 A3041 RMK AO2 TWR VIS 2 1/2 P0000 T10501094
Pressure 30.41 in
Visibility 2.0 miles
Clouds Overcast 4200 ft
Windchill 24 °F
Dew Point 17 °F
Humidity 75%
Rainfall 0.00 in
Snow Depth Not available.
7:08 AM 4:20 PM
Waxing Gibbous, 86% visible
SPECI KORD 102204Z 22006KT 2SM -SN OVC042 M05/M09 A3041 RMK AO2 TWR VIS 2 1/2 P0000 T10501094

10-Day Weather Forecast

Almanac

Astronomy

Dec. 10, 2016 Rise Set
Actual Time
Civil Twilight
Nautical Twilight
Astronomical Twilight
Moon
Length of Visible Light
Length of Day
Tomorrow will be .
, % of the Moon is Illuminated

Today's Extremes

State Highs State Lows

Community

WunderPhotos

Upload Photos

1,956,672 photos uploaded!

WunderBlog® & News

Nearby

Air Quality

  Air Quality AQ Index Pollutant
Not available.

Snow Depth

Station Depth Elevation

Earthquake Activity

City Distance Mag. Time & Date
Minimum magnitude displayed is 2.5.

Coastal Water Temperatures

Place Temperature

Stations

Nearby Weather Stations

Station Location Temp. Windchill Dew Point Humidity Wind Precip. Elev Updated Type
                   

Watches & Warnings

Winter Storm Warning
Issued: 3:39 PM CST Dec. 10, 2016 – National Weather Service

... Winter Storm Warning remains in effect until midnight CST
Sunday night...

* timing... snow... becoming heavy at times... will develop by
evening and continue tonight through Sunday before diminishing
Sunday evening.

* Snow accumulations... 7 to 12 inches with the highest totals
north of Interstate 80. Isolated higher amounts are possible.

* Visibilities... look for reduced visibilities during the
heavier snowfall... likely below a mile at times.

* Impacts... plan on difficult driving conditions.

Precautionary/preparedness actions...

A Winter Storm Warning for heavy snow means severe winter weather
conditions are expected or occurring. Significant amounts of snow
are forecast that will make travel dangerous. Only travel in an
emergency. If you must travel... keep an extra flashlight...
food... and water in your vehicle in case of an emergency.